LSGGLIMJ

Guest
Details From LSGG - Geneva
To LIMJ - Genova Sestri
Flight Number -
Tags decoded
Created
Modified
Stats Distance 161 nm / 299 km
Max Altitude 0 ft / 0 m
Waypoints 5
Social Downloads 13
Likes 0
Share VATSIM

Download

Looking for another format? Having issues loading an existing format? Contact us
Advertisement - Login to hide

Notes

Requested: LSGG ROCCA M135 TOP M730 TESTO LIMJ Unmatched points: M135

Route

LSGG ROCCA TOP TESTO LIMJ

ID Type Via Altitude Latitude Longitude Leg Dist Tot Dist Heading (true) Name
O LSGG APT - 0 ft / 0 m 46.23775˚ 6.10617˚ - 0 nm - Geneva
ROCCA FIX - 0 ft / 0 m 45.74528˚ 6.64556˚ 37 nm 37 nm 143° / 143° -
TOP NDB - 0 ft / 0 m 44.92472˚ 7.86056˚ 71 nm 108 nm 133° / 134° TORINO NDB
TESTO FIX - 0 ft / 0 m 44.59722˚ 8.66556˚ 39 nm 147 nm 120° / 120° -
O LIMJ APT - 0 ft / 0 m 44.41196˚ 8.84187˚ 13 nm 161 nm 146° / 146° Genova Sestri

Altitude Profile

Advertisement - Login to hide

LSGG

Details ICAO LSGG (GVA)
Name Geneva
Region Switzerland
Timezone Europe/Zurich (UTC+2.0)
Stats Elevation 1,410 ft / 430 m (AMSL)
Location 46.237755° 6.106173°
Runways 2
Magnetic Variation 1.790° E

METAR

LSGG 221820Z VRB02KT 9999 -RA FEW040 SCT060 BKN080 16/15 Q1014 NOSIG

Decode

TAF

TAF TAF LSGG 221725Z 2218/2324 24004KT 9999 FEW050 BKN090 TX21/2315Z TN12/2305Z PROB30 TEMPO 2312/2316 VRB15G25KT 4500 TSRA SCT040CB

Decode

Departure Runways

ID Width Length Bearing (true) Bearing (mag) Surface Threshold Offset Overrun Length
05 180 ft / 55 m 12,796 ft / 3,900 m 45.43° 43.64° Concrete 1,079 ft / 329 m 66 ft / 20 m
05L 98 ft / 30 m 2,701 ft / 823 m 45.44° 43.65° Grass 610 ft / 186 m 0 ft / 0 m
23 180 ft / 55 m 12,796 ft / 3,900 m 225.45° 223.66° Concrete 0 ft / 0 m 66 ft / 20 m
23R 98 ft / 30 m 2,701 ft / 823 m 225.45° 223.66° Grass 997 ft / 304 m 0 ft / 0 m

LIMJ

Details ICAO LIMJ (GOA)
Name Genova Sestri
Region Italy
Timezone Unknown (UTC+0.0)
Stats Elevation 13 ft / 4 m (AMSL)
Location 44.411957° 8.841866°
Runways 1
Magnetic Variation 2.437° E

METAR

LIMJ 221820Z 14004KT 110V170 9999 SCT025 SCT060 19/16 Q1014

Decode

TAF

TAF LIMJ 221700Z 2218/2318 VRB05KT 9999 SCT025 SCT060 TEMPO 2218/2221 TSRA TEMPO 2310/2316 23010KT

Decode

Destination Runways

ID Width Length Bearing (true) Bearing (mag) Surface Threshold Offset Overrun Length
10 148 ft / 45 m 9,574 ft / 2,918 m 105.39° 102.95° Asphalt 0 ft / 0 m 0 ft / 0 m
28 148 ft / 45 m 9,574 ft / 2,918 m 285.41° 282.97° Asphalt 538 ft / 164 m 0 ft / 0 m

Approach Navaids

Runway Type Ident Frequency Range Bearing (true) Bearing (mag) Slope Elevation
28 Localiser GSE 109.30 MHz 18 nm / 33 km 287.30° 284.86° - 9 ft / 3 m (AMSL)
28 Glidescope GSE 109.30 MHz 10 nm / 19 km 287.30° 284.86° 3.17° 26 ft / 8 m (AMSL)
28 DME GSE 109.30 MHz 18 nm / 33 km - - - 26 ft / 8 m (AMSL)

Popular Alternatives